Time;durP1;ratioP1;P1;durP2;ratioP2;P2;SDS_P1;SDS_P2;PMS_P1;PMS_P2;Temp;Humidity;BMP_temperature;BMP_pressure;BME280_temperature;BME280_humidity;BME280_pressure;Samples;Min_cycle;Max_cycle;Signal;HPM_P1;HPM_P2
2022/10/04 00:00:27;;;;;;;41.40;7.85;;;;;;;9.45;98.27;98874.03;4169175;28;20206;-84
2022/10/04 00:02:33;;;;;;;20.80;7.03;;;;;;;9.45;98.16;98879.25;4168982;28;20212;-84
2022/10/04 00:04:42;;;;;;;23.48;5.70;;;;;;;9.42;97.72;98880.25;4173347;28;20206;-83
2022/10/04 00:06:48;;;;;;;24.53;5.90;;;;;;;9.38;98.47;98878.72;4173532;28;20229;-82
2022/10/04 00:08:55;;;;;;;26.25;6.28;;;;;;;9.37;98.37;98871.00;4171623;28;20649;-83
2022/10/04 00:11:04;;;;;;;35.47;6.57;;;;;;;9.35;97.55;98875.47;4168874;28;20627;-84
2022/10/04 00:13:15;;;;;;;20.33;6.13;;;;;;;9.27;97.71;98867.16;4158802;28;20711;-83
2022/10/04 00:15:20;;;;;;;23.88;5.32;;;;;;;9.23;97.54;98860.47;4170775;28;20198;-84
2022/10/04 00:17:26;;;;;;;17.00;6.18;;;;;;;9.20;97.29;98860.63;4168897;28;20237;-83
2022/10/04 00:19:42;;;;;;;33.17;6.20;;;;;;;9.16;97.63;98861.69;4151977;28;20282;-82
2022/10/04 00:22:11;;;;;;;35.03;7.03;;;;;;;9.12;98.33;98861.91;4166036;28;20203;-83
2022/10/04 00:24:20;;;;;;;29.02;6.55;;;;;;;9.08;97.63;98856.03;4173228;28;20762;-84
2022/10/04 00:27:08;;;;;;;28.42;5.43;;;;;;;9.08;97.48;98863.84;4172558;28;20225;-83
2022/10/04 00:29:30;;;;;;;14.18;4.63;;;;;;;9.07;98.40;98862.13;4154686;28;20273;-83
2022/10/04 00:31:33;;;;;;;41.70;7.47;;;;;;;9.11;98.18;98863.69;4170468;28;20211;-83
2022/10/04 00:33:38;;;;;;;25.80;6.32;;;;;;;9.15;98.55;98865.19;4176161;28;20241;-84
2022/10/04 00:35:49;;;;;;;35.88;7.38;;;;;;;9.18;98.31;98862.44;4171641;28;20210;-83
2022/10/04 00:37:57;;;;;;;16.95;6.45;;;;;;;9.17;98.73;98863.38;4168668;28;20268;-83
2022/10/04 00:40:11;;;;;;;18.38;5.85;;;;;;;9.21;99.03;98864.88;4169877;28;20692;-83
2022/10/04 00:42:49;;;;;;;45.67;8.63;;;;;;;9.21;98.65;98864.88;4161083;28;20214;-83
2022/10/04 00:44:56;;;;;;;26.85;5.22;;;;;;;9.22;98.24;98861.38;4172745;28;20222;-83
2022/10/04 00:47:01;;;;;;;14.48;5.35;;;;;;;9.25;99.04;98865.59;4159361;28;20289;-83
2022/10/04 00:49:07;;;;;;;10.07;4.70;;;;;;;9.25;98.63;98863.81;4175621;28;20226;-83
2022/10/04 00:51:15;;;;;;;10.85;4.78;;;;;;;9.26;98.58;98859.44;4157223;28;20310;-82
2022/10/04 00:53:30;;;;;;;33.22;7.53;;;;;;;9.27;98.16;98858.53;4155334;28;20257;-83
2022/10/04 00:55:36;;;;;;;47.75;8.88;;;;;;;9.29;98.08;98867.09;4171097;28;20309;-83
2022/10/04 00:57:41;;;;;;;70.25;12.13;;;;;;;9.27;98.53;98854.16;4174358;28;20221;-82
2022/10/04 00:59:46;;;;;;;22.17;5.70;;;;;;;9.27;99.30;98856.75;4168550;28;20228;-83
2022/10/04 01:01:52;;;;;;;33.90;6.25;;;;;;;9.27;99.19;98853.31;4168331;28;20206;-83
2022/10/04 01:03:57;;;;;;;15.23;4.93;;;;;;;9.27;99.32;98848.94;4171682;28;20237;-83
2022/10/04 01:06:04;;;;;;;16.50;4.82;;;;;;;9.28;98.51;98855.84;4177288;28;20202;-83
2022/10/04 01:08:10;;;;;;;23.23;5.82;;;;;;;9.28;98.39;98844.63;4167668;28;20213;-84
2022/10/04 01:10:18;;;;;;;19.65;5.00;;;;;;;9.25;98.07;98845.59;4171314;28;20562;-83
2022/10/04 01:12:38;;;;;;;35.35;5.63;;;;;;;9.25;97.83;98850.81;4153567;28;20229;-83
2022/10/04 01:14:47;;;;;;;16.63;5.15;;;;;;;9.21;97.82;98845.84;4173812;28;20202;-83
2022/10/04 01:16:51;;;;;;;8.75;4.28;;;;;;;9.21;96.89;98838.03;4165827;28;20290;-83
2022/10/04 01:18:55;;;;;;;8.93;4.30;;;;;;;9.14;96.79;98834.91;4167331;28;20214;-83
2022/10/04 01:21:00;;;;;;;14.45;4.18;;;;;;;9.09;96.58;98828.22;4158735;28;20823;-84
2022/10/04 01:23:05;;;;;;;15.32;5.10;;;;;;;9.02;96.60;98826.84;4171985;28;20198;-83
2022/10/04 01:25:08;;;;;;;17.65;5.30;;;;;;;8.95;96.37;98828.09;4167225;28;20927;-83
2022/10/04 01:27:37;;;;;;;13.25;3.97;;;;;;;8.91;96.11;98830.94;4186196;28;20210;-83
2022/10/04 01:29:40;;;;;;;5.85;3.40;;;;;;;8.87;96.11;98831.97;4172138;28;20803;-84
2022/10/04 01:31:45;;;;;;;10.73;4.13;;;;;;;8.86;96.44;98820.75;4156407;28;20258;-82
2022/10/04 01:33:50;;;;;;;21.58;5.15;;;;;;;8.83;96.98;98818.31;4168207;28;20764;-84
2022/10/04 01:35:53;;;;;;;24.35;5.13;;;;;;;8.85;96.78;98828.63;4176362;28;20297;-83
2022/10/04 01:37:56;;;;;;;34.88;5.93;;;;;;;8.83;97.02;98825.28;4163552;28;20645;-83
2022/10/04 01:40:01;;;;;;;39.30;7.03;;;;;;;8.83;96.60;98830.47;4174202;28;20217;-83
2022/10/04 01:42:07;;;;;;;22.17;6.03;;;;;;;8.81;96.80;98821.88;4175540;28;20572;-82
2022/10/04 01:44:13;;;;;;;34.13;6.60;;;;;;;8.81;96.35;98824.47;4167252;28;20306;-83
2022/10/04 01:46:20;;;;;;;32.03;7.15;;;;;;;8.80;96.41;98817.63;4169455;28;20681;-83
2022/10/04 01:48:25;;;;;;;31.70;6.70;;;;;;;8.81;97.78;98816.69;4161719;28;20205;-84
2022/10/04 01:50:30;;;;;;;36.03;6.18;;;;;;;8.78;97.89;98806.44;4153859;28;20269;-83
2022/10/04 01:52:35;;;;;;;27.98;6.10;;;;;;;8.79;97.35;98797.72;4171923;28;20211;-83
2022/10/04 01:54:41;;;;;;;72.82;7.70;;;;;;;8.78;97.89;98802.09;4170479;28;20292;-83
2022/10/04 01:56:48;;;;;;;77.68;8.98;;;;;;;8.74;97.59;98800.56;4181437;28;20573;-84
2022/10/04 01:58:52;;;;;;;57.78;8.43;;;;;;;8.71;97.14;98807.69;4158871;28;20694;-83
2022/10/04 02:00:59;;;;;;;57.47;8.18;;;;;;;8.65;96.89;98806.22;4147562;28;20291;-83
2022/10/04 02:03:05;;;;;;;52.65;8.63;;;;;;;8.63;97.80;98800.25;4173519;28;20213;-83
2022/10/04 02:05:11;;;;;;;44.17;7.55;;;;;;;8.62;97.97;98792.53;4172483;28;20303;-84
2022/10/04 02:07:15;;;;;;;49.83;8.25;;;;;;;8.59;98.85;98790.09;4168882;28;20222;-83
2022/10/04 02:09:20;;;;;;;40.17;7.03;;;;;;;8.55;97.54;98785.94;4159226;28;20770;-83
2022/10/04 02:11:25;;;;;;;59.00;7.07;;;;;;;8.55;98.47;98788.53;4169590;28;20221;-83
2022/10/04 02:13:40;;;;;;;49.83;7.82;;;;;;;8.53;98.53;98783.41;4165731;28;20216;-83
2022/10/04 02:15:43;;;;;;;51.42;7.90;;;;;;;8.51;99.42;98782.66;4177558;28;20288;-83
2022/10/04 02:17:47;;;;;;;62.40;8.10;;;;;;;8.52;99.43;98773.09;4173059;28;20214;-84
2022/10/04 02:19:51;;;;;;;40.00;5.78;;;;;;;8.50;98.55;98774.94;4170752;28;20234;-83
2022/10/04 02:21:55;;;;;;;39.88;7.05;;;;;;;8.50;97.97;98775.75;4166156;28;20209;-83
2022/10/04 02:23:58;;;;;;;42.63;6.03;;;;;;;8.48;98.09;98774.19;4169566;28;20589;-84
2022/10/04 02:26:04;;;;;;;37.50;5.82;;;;;;;8.47;98.80;98769.88;4176489;28;20215;-83
2022/10/04 02:28:10;;;;;;;52.08;6.25;;;;;;;8.46;99.31;98773.38;4172932;28;20229;-83
2022/10/04 02:30:15;;;;;;;32.50;6.18;;;;;;;8.43;99.41;98768.34;4165948;28;20219;-83
2022/10/04 02:34:39;;;;;;;39.22;5.95;;;;;;;8.36;98.39;98764.38;4170147;28;20310;-84
2022/10/04 02:36:42;;;;;;;28.30;5.20;;;;;;;8.38;98.87;98765.13;4175104;28;20202;-84
2022/10/04 02:38:51;;;;;;;34.88;5.35;;;;;;;8.37;99.05;98763.44;4170788;28;20231;-83
2022/10/04 02:40:57;;;;;;;27.17;5.78;;;;;;;8.38;98.80;98769.50;4168502;28;20287;-83
2022/10/04 02:43:03;;;;;;;59.72;8.55;;;;;;;8.45;99.93;98774.31;4167249;28;20226;-83
2022/10/04 02:45:12;;;;;;;73.63;9.93;;;;;;;8.49;99.47;98781.03;4165731;28;20233;-83
2022/10/04 02:47:19;;;;;;;27.58;6.30;;;;;;;8.48;99.84;98775.00;4158327;28;20222;-83
2022/10/04 02:49:28;;;;;;;28.35;5.53;;;;;;;8.52;99.89;98783.50;4166930;28;20300;-83
2022/10/04 02:51:34;;;;;;;27.83;6.47;;;;;;;8.54;98.99;98774.72;4172635;28;20249;-83
2022/10/04 02:53:42;;;;;;;29.60;5.88;;;;;;;8.58;99.33;98773.63;4156020;28;20702;-82
2022/10/04 02:55:46;;;;;;;27.67;6.10;;;;;;;8.59;99.71;98769.28;4168250;28;20720;-83
2022/10/04 02:57:51;;;;;;;23.92;4.75;;;;;;;8.59;99.15;98779.69;4159290;28;20685;-83
2022/10/04 03:00:07;;;;;;;15.02;3.85;;;;;;;8.54;98.89;98771.28;4169627;28;20210;-83
2022/10/04 03:02:23;;;;;;;32.80;5.43;;;;;;;8.52;99.03;98773.94;4167986;28;20248;-83
2022/10/04 03:04:33;;;;;;;25.85;4.70;;;;;;;8.46;98.69;98766.47;4177201;28;20238;-83
2022/10/04 03:06:36;;;;;;;22.45;4.05;;;;;;;8.42;97.29;98771.88;4172578;28;20524;-83
2022/10/04 03:08:46;;;;;;;28.27;5.18;;;;;;;8.38;97.43;98770.34;4169880;28;20229;-84
2022/10/04 03:10:49;;;;;;;14.85;4.22;;;;;;;8.37;97.18;98767.81;4177072;28;20256;-82
2022/10/04 03:12:53;;;;;;;18.55;3.97;;;;;;;8.35;98.11;98770.47;4167032;28;20255;-83
2022/10/04 03:14:56;;;;;;;27.95;5.10;;;;;;;8.35;97.31;98762.69;4164727;28;20676;-83
2022/10/04 03:17:02;;;;;;;23.55;4.50;;;;;;;8.34;96.86;98754.97;4169585;28;20213;-82
2022/10/04 03:19:07;;;;;;;31.13;4.80;;;;;;;8.31;96.73;98758.53;4170484;28;20673;-84
2022/10/04 03:21:13;;;;;;;20.55;4.63;;;;;;;8.27;98.30;98756.16;4172964;28;20198;-84
2022/10/04 03:23:17;;;;;;;22.23;4.63;;;;;;;8.22;97.00;98753.78;4150985;28;20309;-83
2022/10/04 03:25:22;;;;;;;15.32;4.50;;;;;;;8.19;97.06;98753.94;4166556;28;20210;-83
2022/10/04 03:27:31;;;;;;;26.27;5.55;;;;;;;8.18;98.42;98746.25;4171594;28;20224;-83
2022/10/04 03:29:35;;;;;;;21.13;5.10;;;;;;;8.20;98.23;98739.22;4168570;28;20667;-83
2022/10/04 03:31:40;;;;;;;42.47;5.78;;;;;;;8.19;98.23;98730.56;4175066;28;20232;-84
2022/10/04 03:33:44;;;;;;;37.33;5.75;;;;;;;8.17;97.62;98734.16;4166546;28;20950;-82
2022/10/04 03:35:50;;;;;;;57.28;7.30;;;;;;;8.16;98.00;98727.28;4172116;28;20229;-83
2022/10/04 03:37:53;;;;;;;59.55;7.68;;;;;;;8.15;98.79;98729.03;4166736;28;20249;-84
2022/10/04 03:39:57;;;;;;;70.50;8.65;;;;;;;8.13;97.10;98736.09;4170455;28;20243;-84
2022/10/04 03:42:03;;;;;;;35.67;6.07;;;;;;;8.13;99.11;98732.63;4157334;28;20305;-83
2022/10/04 03:44:07;;;;;;;48.15;7.85;;;;;;;8.10;98.31;98735.34;4156165;28;20305;-83
2022/10/04 03:46:12;;;;;;;41.88;5.82;;;;;;;8.12;98.47;98747.38;4171816;28;20676;-82
2022/10/04 03:48:29;;;;;;;39.13;6.53;;;;;;;8.13;99.24;98741.28;4156417;28;20213;-83
2022/10/04 03:50:35;;;;;;;28.80;5.32;;;;;;;8.11;99.55;98745.69;4172852;28;20238;-83
2022/10/04 03:52:50;;;;;;;29.90;5.10;;;;;;;8.14;98.15;98749.91;4158102;28;20202;-83
2022/10/04 03:54:54;;;;;;;35.20;6.13;;;;;;;8.12;98.11;98756.94;4170847;28;20206;-83
2022/10/04 03:56:58;;;;;;;38.28;5.63;;;;;;;8.13;98.25;98748.22;4166665;28;20604;-83
2022/10/04 03:59:03;;;;;;;68.15;9.38;;;;;;;8.14;99.15;98760.28;4177462;28;20201;-83
2022/10/04 04:01:13;;;;;;;22.50;4.90;;;;;;;8.20;98.32;98754.81;4169613;28;20618;-82
2022/10/04 04:03:19;;;;;;;46.47;5.90;;;;;;;8.19;99.46;98759.13;4173144;28;20212;-83
2022/10/04 04:05:25;;;;;;;29.10;6.15;;;;;;;8.19;98.45;98756.53;4175337;28;20279;-83
2022/10/04 04:07:30;;;;;;;28.08;4.97;;;;;;;8.19;98.14;98751.34;4174056;28;20294;-83
2022/10/04 04:09:39;;;;;;;16.35;5.43;;;;;;;8.20;99.70;98747.84;4156134;28;20199;-84
2022/10/04 04:11:42;;;;;;;26.52;5.30;;;;;;;8.19;98.14;98737.53;4177319;28;20728;-83
2022/10/04 04:13:49;;;;;;;32.15;5.50;;;;;;;8.21;98.41;98733.09;4170497;28;20255;-83
2022/10/04 04:15:54;;;;;;;43.67;6.45;;;;;;;8.21;98.22;98736.53;4163544;28;20237;-83
2022/10/04 04:18:00;;;;;;;50.75;7.43;;;;;;;8.25;98.55;98742.41;4172640;28;20244;-83
2022/10/04 04:20:06;;;;;;;31.90;5.40;;;;;;;8.23;97.30;98741.66;4158398;28;20210;-83
2022/10/04 04:22:14;;;;;;;24.35;5.10;;;;;;;8.19;96.92;98742.72;4178244;28;20226;-83
2022/10/04 04:24:22;;;;;;;25.50;4.72;;;;;;;8.18;97.67;98741.88;4158667;28;20194;-85
2022/10/04 04:26:33;;;;;;;42.35;6.05;;;;;;;8.05;96.26;98739.91;4170606;28;20288;-83
2022/10/04 04:28:40;;;;;;;17.17;4.97;;;;;;;8.01;98.10;98734.03;4171376;28;20258;-83
2022/10/04 04:30:45;;;;;;;28.33;5.13;;;;;;;7.99;98.26;98729.81;4158134;28;20208;-83
2022/10/04 04:32:50;;;;;;;31.85;5.13;;;;;;;7.99;97.45;98728.06;4168544;28;20254;-83
2022/10/04 04:34:54;;;;;;;43.92;6.00;;;;;;;8.01;98.47;98733.19;4180493;28;20264;-84
2022/10/04 04:36:58;;;;;;;26.67;5.50;;;;;;;8.01;98.73;98736.63;4167770;28;20296;-84
2022/10/04 04:41:46;;;;;;;49.83;12.60;;;;;;;7.96;97.99;98736.00;4126795;28;20708;-84
2022/10/04 04:43:52;;;;;;;45.63;15.85;;;;;;;7.94;98.76;98737.00;4128332;28;20208;-83
2022/10/04 04:45:57;;;;;;;41.00;12.30;;;;;;;7.92;97.70;98735.38;4126658;28;20208;-83
2022/10/04 04:48:21;;;;;;;89.97;10.57;;;;;;;7.96;97.23;98744.72;4159579;28;20205;-84
2022/10/04 04:50:26;;;;;;;26.75;7.55;;;;;;;7.93;98.18;98748.28;4165779;28;20206;-86
2022/10/04 04:52:31;;;;;;;17.60;7.20;;;;;;;7.93;99.27;98729.28;4159275;28;20312;-84
2022/10/04 04:54:34;;;;;;;32.95;7.22;;;;;;;7.92;98.34;98735.38;4161367;28;20213;-85
2022/10/04 04:56:37;;;;;;;31.20;7.70;;;;;;;7.94;98.20;98749.13;4158786;28;20203;-85
2022/10/04 04:58:44;;;;;;;25.92;7.75;;;;;;;7.92;98.74;98737.97;4168041;28;20416;-85
2022/10/04 05:00:53;;;;;;;28.77;6.53;;;;;;;7.91;97.76;98747.53;4163596;28;20206;-85
2022/10/04 05:02:57;;;;;;;29.15;8.57;;;;;;;7.94;98.94;98756.91;4188462;28;20225;-85
2022/10/04 05:05:21;;;;;;;63.95;10.50;;;;;;;7.96;97.48;98758.53;4188579;28;20317;-85
2022/10/04 05:07:24;;;;;;;48.72;9.30;;;;;;;7.96;97.49;98749.91;4168056;28;20231;-85
2022/10/04 05:09:30;;;;;;;27.05;6.57;;;;;;;7.96;99.01;98755.09;4168129;28;20255;-85
2022/10/04 05:11:35;;;;;;;60.10;9.25;;;;;;;7.98;98.65;98754.09;4175219;28;20203;-85
2022/10/04 05:13:42;;;;;;;16.70;6.05;;;;;;;7.99;99.18;98761.81;4170694;28;20221;-85
2022/10/04 05:15:46;;;;;;;29.15;7.15;;;;;;;8.01;98.72;98767.81;4176677;28;20713;-85
2022/10/04 05:17:49;;;;;;;22.20;5.85;;;;;;;8.00;99.33;98771.31;4178376;28;20203;-85
2022/10/04 05:19:53;;;;;;;28.92;5.97;;;;;;;8.01;98.69;98767.81;4176411;28;20599;-85
2022/10/04 05:21:57;;;;;;;144.65;16.48;;;;;;;8.05;99.26;98763.28;4173498;28;20256;-85
2022/10/04 05:24:09;;;;;;;33.55;8.05;;;;;;;8.06;98.71;98765.81;4155934;28;20211;-86
2022/10/04 05:26:14;;;;;;;29.00;7.15;;;;;;;8.04;98.59;98765.06;4156820;28;20256;-85
2022/10/04 05:28:18;;;;;;;38.42;7.03;;;;;;;8.07;99.58;98764.06;4167601;28;20205;-85
2022/10/04 05:30:44;;;;;;;9.60;4.88;;;;;;;8.10;99.19;98766.50;4174226;28;20202;-85
2022/10/04 05:32:53;;;;;;;25.45;6.07;;;;;;;8.12;98.24;98770.75;4160007;28;20227;-85
2022/10/04 05:34:58;;;;;;;12.95;5.70;;;;;;;8.12;98.91;98762.13;4155786;28;20236;-85
2022/10/04 05:37:21;;;;;;;32.83;7.22;;;;;;;8.15;99.13;98767.19;4163713;28;20300;-85
2022/10/04 05:39:27;;;;;;;31.25;6.32;;;;;;;8.16;99.18;98767.09;4169265;28;20796;-86
2022/10/04 05:41:34;;;;;;;19.55;4.70;;;;;;;8.16;98.85;98768.84;4173509;28;20705;-85
2022/10/04 05:43:45;;;;;;;16.63;4.40;;;;;;;8.15;97.03;98770.59;4154801;28;20675;-85
2022/10/04 05:46:11;;;;;;;13.52;4.93;;;;;;;8.11;97.36;98768.19;4168801;28;20210;-86
2022/10/04 05:48:14;;;;;;;20.17;5.72;;;;;;;8.11;98.00;98771.66;4165464;28;20208;-85
2022/10/04 05:50:20;;;;;;;14.10;4.72;;;;;;;8.11;97.69;98766.47;4170194;28;20267;-84
2022/10/04 05:52:29;;;;;;;9.65;4.97;;;;;;;8.12;96.64;98762.97;4155546;28;20228;-85
2022/10/04 05:54:36;;;;;;;21.10;6.22;;;;;;;8.09;96.57;98755.28;4172519;28;20216;-85
2022/10/04 05:57:18;;;;;;;7.40;5.15;;;;;;;8.09;96.11;98755.28;4173522;28;20205;-85
2022/10/04 05:59:41;;;;;;;15.43;6.07;;;;;;;8.07;95.11;98753.66;4169654;28;20209;-85
2022/10/04 06:01:52;;;;;;;37.60;8.60;;;;;;;8.04;95.01;98756.41;4170735;28;20260;-85
2022/10/04 06:04:08;;;;;;;45.60;9.57;;;;;;;8.02;96.79;98758.25;4166624;28;20210;-85
2022/10/04 06:06:16;;;;;;;34.42;8.00;;;;;;;8.01;96.42;98760.00;4173004;28;20279;-86
2022/10/04 06:08:29;;;;;;;41.15;7.15;;;;;;;8.05;98.16;98760.69;4169484;28;20241;-85
2022/10/04 06:10:52;;;;;;;38.90;8.27;;;;;;;8.12;98.49;98749.97;4159544;28;20226;-84
2022/10/04 06:12:59;;;;;;;27.38;6.75;;;;;;;8.16;97.58;98764.50;4167305;28;20229;-85
2022/10/04 06:15:25;;;;;;;11.52;5.38;;;;;;;8.19;97.86;98760.91;4166526;28;20206;-85
2022/10/04 06:17:49;;;;;;;11.05;6.20;;;;;;;8.26;97.47;98765.72;4162545;28;20570;-85
2022/10/04 06:20:14;;;;;;;12.63;5.70;;;;;;;8.26;96.58;98755.34;4154737;28;20729;-85
2022/10/04 06:22:18;;;;;;;6.00;5.03;;;;;;;8.32;97.47;98762.00;4156120;28;20212;-85
2022/10/04 06:24:24;;;;;;;10.98;8.88;;;;;;;8.37;95.70;98762.63;4170291;28;20572;-85
2022/10/04 06:26:34;;;;;;;14.93;9.50;;;;;;;8.41;96.32;98765.00;4175286;28;20213;-85
2022/10/04 06:28:40;;;;;;;7.00;5.07;;;;;;;8.44;96.16;98768.25;4174251;28;20614;-85
2022/10/04 06:30:54;;;;;;;19.80;17.90;;;;;;;8.46;96.74;98768.19;4152845;28;20258;-85
2022/10/04 06:33:08;;;;;;;16.08;13.23;;;;;;;8.50;97.56;98774.94;4168514;28;20224;-85
2022/10/04 06:35:35;;;;;;;11.65;8.45;;;;;;;8.56;96.46;98780.66;4168239;28;20197;-85
2022/10/04 06:38:13;;;;;;;10.60;8.70;;;;;;;8.60;97.21;98781.34;4171267;28;20234;-85
2022/10/04 06:40:49;;;;;;;14.23;9.15;;;;;;;8.67;97.70;98782.72;4153244;28;20269;-85
2022/10/04 06:43:03;;;;;;;13.27;8.98;;;;;;;8.70;96.57;98780.81;4134179;28;20205;-85
2022/10/04 06:45:20;;;;;;;15.45;12.52;;;;;;;8.71;97.37;98790.31;4169430;28;20202;-85
2022/10/04 06:47:38;;;;;;;8.70;5.80;;;;;;;8.73;96.94;98788.47;4166781;28;20212;-85
2022/10/04 06:49:46;;;;;;;7.47;5.57;;;;;;;8.75;97.34;98796.19;4158058;28;20249;-85
2022/10/04 06:52:13;;;;;;;6.95;6.10;;;;;;;8.82;98.33;98797.56;4171075;28;20206;-85
2022/10/04 06:54:34;;;;;;;6.35;5.22;;;;;;;8.92;98.36;98799.63;4167950;28;20260;-85
2022/10/04 06:56:54;;;;;;;6.40;5.35;;;;;;;8.97;98.56;98798.47;4163632;28;20237;-84
2022/10/04 06:59:18;;;;;;;6.70;5.45;;;;;;;9.02;98.24;98814.72;4169491;28;20245;-85
2022/10/04 07:01:27;;;;;;;6.50;5.32;;;;;;;9.10;98.27;98815.16;4170536;28;20669;-86
2022/10/04 07:03:36;;;;;;;5.68;5.05;;;;;;;9.19;98.17;98803.44;4169169;28;20237;-85
2022/10/04 07:05:45;;;;;;;7.50;6.18;;;;;;;9.28;98.26;98805.56;4154853;28;20194;-85
2022/10/04 07:08:05;;;;;;;9.65;5.65;;;;;;;9.34;98.38;98808.69;4169069;28;20245;-85
2022/10/04 07:10:31;;;;;;;6.03;4.95;;;;;;;9.42;98.06;98816.94;4170039;28;20245;-84
2022/10/04 07:12:35;;;;;;;5.78;4.97;;;;;;;9.48;97.51;98816.63;4168736;28;20226;-85
2022/10/04 07:14:43;;;;;;;6.85;5.45;;;;;;;9.54;98.20;98811.09;4172247;28;20245;-85
2022/10/04 07:16:48;;;;;;;9.82;8.82;;;;;;;9.64;99.21;98807.09;4154752;28;20629;-86
2022/10/04 07:18:57;;;;;;;7.40;5.97;;;;;;;9.71;98.31;98806.69;4169076;28;20264;-85
2022/10/04 07:21:05;;;;;;;6.85;5.43;;;;;;;9.77;98.20;98802.88;4155503;28;20198;-85
2022/10/04 07:23:14;;;;;;;8.48;6.68;;;;;;;9.83;98.35;98802.56;4159800;28;20201;-86
2022/10/04 07:25:21;;;;;;;11.43;5.70;;;;;;;9.85;97.69;98807.59;4169170;28;20780;-85
2022/10/04 07:27:29;;;;;;;7.32;6.00;;;;;;;9.92;98.14;98824.59;4169981;28;20203;-85
2022/10/04 07:29:34;;;;;;;9.07;5.90;;;;;;;10.00;98.85;98827.66;4166186;28;20209;-85
2022/10/04 07:31:44;;;;;;;11.25;7.88;;;;;;;10.08;98.66;98824.63;4173104;28;20203;-85
2022/10/04 07:33:50;;;;;;;8.05;5.22;;;;;;;10.12;98.60;98823.56;4172338;28;20217;-85
2022/10/04 07:35:59;;;;;;;7.88;6.47;;;;;;;10.20;99.58;98829.19;4175654;28;20209;-85
2022/10/04 07:38:10;;;;;;;6.35;5.35;;;;;;;10.26;98.90;98834.88;4168190;28;20210;-85
2022/10/04 07:40:21;;;;;;;7.40;5.60;;;;;;;10.32;99.04;98831.94;4169209;28;20218;-85
2022/10/04 07:42:29;;;;;;;8.75;7.10;;;;;;;10.34;98.30;98823.13;4169548;28;21242;-85
2022/10/04 07:44:35;;;;;;;10.23;8.57;;;;;;;10.37;97.90;98827.31;4167115;28;20199;-86
2022/10/04 07:46:44;;;;;;;8.05;6.65;;;;;;;10.43;99.12;98833.03;4159211;28;21282;-85
2022/10/04 07:48:48;;;;;;;8.65;7.85;;;;;;;10.51;98.39;98827.41;4158821;28;20810;-85
2022/10/04 07:51:02;;;;;;;6.93;6.22;;;;;;;10.54;98.42;98825.44;4168646;28;20214;-85
2022/10/04 07:53:09;;;;;;;8.38;6.95;;;;;;;10.65;98.17;98822.22;4157026;28;20692;-84
2022/10/04 07:55:19;;;;;;;8.43;5.60;;;;;;;10.70;99.75;98817.56;4170787;28;20211;-85
2022/10/04 07:57:25;;;;;;;8.10;6.03;;;;;;;10.73;99.49;98810.41;4167539;28;20651;-85
2022/10/04 07:59:38;;;;;;;7.67;6.00;;;;;;;10.77;99.03;98824.13;4157063;28;21463;-86
2022/10/04 08:01:45;;;;;;;6.83;5.40;;;;;;;10.81;97.67;98829.94;4174584;28;20636;-86
2022/10/04 08:04:00;;;;;;;14.87;10.60;;;;;;;10.90;96.89;98826.78;4154784;28;20676;-85
2022/10/04 08:06:10;;;;;;;12.80;10.60;;;;;;;11.02;98.64;98828.69;4178456;28;21239;-85
2022/10/04 08:08:26;;;;;;;10.70;8.20;;;;;;;11.15;98.72;98834.84;4156562;28;20652;-85
2022/10/04 08:10:32;;;;;;;9.90;6.20;;;;;;;11.25;98.13;98825.56;4156972;28;20637;-85
2022/10/04 08:12:46;;;;;;;8.87;6.43;;;;;;;11.39;98.62;98823.78;4166369;28;21053;-85
2022/10/04 08:14:55;;;;;;;7.47;5.82;;;;;;;11.59;99.50;98830.47;4148005;28;20661;-86
2022/10/04 08:17:10;;;;;;;6.70;5.90;;;;;;;11.76;97.35;98831.97;4173107;28;20214;-85
2022/10/04 08:19:32;;;;;;;7.78;5.80;;;;;;;11.86;96.62;98838.31;4169227;28;20636;-85
2022/10/04 08:21:41;;;;;;;7.47;6.70;;;;;;;11.97;96.37;98841.09;4157470;28;20707;-86
2022/10/04 08:23:55;;;;;;;9.53;7.00;;;;;;;12.13;97.50;98836.59;4167354;28;20689;-85
2022/10/04 08:26:07;;;;;;;8.20;6.60;;;;;;;12.36;99.64;98836.00;4157610;28;20699;-85
2022/10/04 08:30:52;;;;;;;7.00;6.30;;;;;;;12.56;95.73;98835.56;4167323;28;20617;-85
2022/10/04 08:33:05;;;;;;;9.27;5.53;;;;;;;12.59;95.54;98837.97;4170078;28;20666;-86
2022/10/04 08:35:45;;;;;;;8.40;5.47;;;;;;;12.68;94.97;98844.28;4171614;28;20657;-85
2022/10/04 08:37:59;;;;;;;9.50;5.60;;;;;;;12.78;95.50;98831.47;4135768;28;21261;-86
2022/10/04 08:40:42;;;;;;;8.90;5.90;;;;;;;12.97;94.50;98829.34;4178334;28;21006;-85
2022/10/04 08:43:08;;;;;;;8.30;6.50;;;;;;;13.21;95.98;98833.78;4165577;28;20683;-86
2022/10/04 08:45:52;;;;;;;11.00;6.30;;;;;;;13.41;95.18;98834.13;4152966;28;20633;-86
2022/10/04 08:48:38;;;;;;;9.77;6.53;;;;;;;13.68;95.07;98838.31;4165337;28;20644;-86
2022/10/04 08:51:02;;;;;;;9.03;6.20;;;;;;;13.99;95.65;98845.72;4158665;28;21379;-86
2022/10/04 08:53:32;;;;;;;7.50;6.33;;;;;;;14.33;95.84;98852.94;4172327;28;21224;-85
2022/10/04 08:55:47;;;;;;;7.63;5.93;;;;;;;14.58;93.91;98852.84;4178089;28;20652;-85
2022/10/04 08:58:14;;;;;;;8.23;5.67;;;;;;;14.62;93.12;98853.34;4172958;28;20624;-85
2022/10/04 09:00:20;;;;;;;6.20;5.50;;;;;;;14.67;91.10;98858.28;4154686;28;21147;-86
2022/10/04 09:02:40;;;;;;;10.47;5.90;;;;;;;14.86;92.29;98854.19;4163809;28;21149;-86
2022/10/04 09:04:57;;;;;;;7.03;5.10;;;;;;;14.97;91.11;98843.75;4173148;28;20694;-86
2022/10/04 09:07:28;;;;;;;6.23;4.43;;;;;;;15.07;89.52;98845.56;4158903;28;20740;-87
2022/10/04 09:10:05;;;;;;;7.07;4.97;;;;;;;15.16;90.49;98846.69;4171520;28;20920;-86
2022/10/04 09:12:43;;;;;;;7.13;4.37;;;;;;;15.18;87.66;98850.06;4173847;28;20787;-83
2022/10/04 09:15:01;;;;;;;8.03;4.87;;;;;;;15.25;90.19;98840.78;4171411;28;20755;-84
2022/10/04 09:17:18;;;;;;;6.23;4.60;;;;;;;15.38;87.97;98833.63;4178186;28;20627;-84
2022/10/04 09:19:37;;;;;;;5.60;4.50;;;;;;;15.55;88.00;98836.66;4163369;28;20639;-86
2022/10/04 09:21:49;;;;;;;8.27;4.33;;;;;;;15.61;87.08;98837.03;4158930;28;20721;-87
2022/10/04 09:24:21;;;;;;;5.83;4.50;;;;;;;15.73;87.29;98830.84;4155180;28;20640;-90
2022/10/04 09:26:31;;;;;;;7.53;4.90;;;;;;;15.85;86.95;98829.88;4169906;28;20822;-86
2022/10/04 09:29:02;;;;;;;20.80;5.73;;;;;;;16.07;88.39;98832.50;4174689;28;20210;-86
2022/10/04 09:31:22;;;;;;;5.60;3.77;;;;;;;16.21;87.00;98835.75;4168305;28;20671;-86
2022/10/04 09:33:43;;;;;;;8.30;3.30;;;;;;;16.27;85.88;98823.94;4186612;28;20666;-85
2022/10/04 09:36:09;;;;;;;4.00;3.10;;;;;;;16.32;84.41;98819.13;4176081;28;20639;-85
2022/10/04 09:38:47;;;;;;;4.50;3.00;;;;;;;16.37;81.94;98820.41;4188251;28;20724;-85
2022/10/04 09:41:21;;;;;;;6.10;3.60;;;;;;;16.52;83.40;98822.69;4173078;28;20672;-85
2022/10/04 09:43:44;;;;;;;5.50;3.30;;;;;;;16.66;83.39;98827.66;4169784;28;21363;-85
2022/10/04 09:45:59;;;;;;;6.83;3.23;;;;;;;16.82;83.60;98827.25;4161702;28;20608;-85
2022/10/04 09:48:23;;;;;;;8.07;2.90;;;;;;;16.88;80.93;98818.84;4160813;28;20695;-85
2022/10/04 09:50:41;;;;;;;5.23;2.90;;;;;;;16.98;81.16;98831.16;4154243;28;20646;-85
2022/10/04 09:52:50;;;;;;;4.53;2.83;;;;;;;17.05;83.57;98829.69;4172067;28;20653;-85
2022/10/04 09:55:07;;;;;;;6.87;3.47;;;;;;;17.15;81.43;98833.22;4169327;28;20656;-86
2022/10/04 09:57:29;;;;;;;10.77;2.60;;;;;;;17.22;79.25;98823.88;4168190;28;20637;-85
2022/10/04 09:59:52;;;;;;;4.97;2.73;;;;;;;17.25;78.52;98821.00;4169825;28;21251;-86
2022/10/04 10:02:28;;;;;;;7.10;2.60;;;;;;;17.35;79.53;98827.16;4169880;28;20632;-86
2022/10/04 10:04:43;;;;;;;4.80;2.90;;;;;;;17.45;80.79;98822.78;4154764;28;20643;-85
2022/10/04 10:06:55;;;;;;;5.00;3.10;;;;;;;17.49;78.86;98828.50;4168854;28;20679;-85
2022/10/04 10:09:08;;;;;;;3.80;2.93;;;;;;;17.60;79.84;98830.25;4157387;28;21074;-85
2022/10/04 10:14:05;;;;;;;8.73;2.80;;;;;;;17.71;76.78;98824.88;4173517;28;20979;-86
2022/10/04 10:16:40;;;;;;;6.20;3.20;;;;;;;17.75;75.91;98834.22;4151563;28;20748;-88
2022/10/04 10:18:52;;;;;;;6.00;2.80;;;;;;;17.74;75.62;98822.84;4155999;28;20664;-87
2022/10/04 10:21:11;;;;;;;5.07;2.80;;;;;;;17.66;74.48;98820.00;4158230;28;20640;-87
2022/10/04 10:23:29;;;;;;;5.33;3.23;;;;;;;17.64;75.48;98834.31;4169254;28;20655;-86
2022/10/04 10:25:46;;;;;;;4.80;2.67;;;;;;;17.62;74.36;98826.53;4169239;28;20663;-87
2022/10/04 10:27:57;;;;;;;7.63;3.33;;;;;;;17.61;74.12;98829.28;4157398;28;20624;-85
2022/10/04 10:30:11;;;;;;;5.83;3.30;;;;;;;17.56;74.67;98827.03;4166933;28;21428;-84